sensor_id;sensor_type;location;lat;lon;timestamp;P1;durP1;ratioP1;P2;durP2;ratioP2
19509;SDS011;9896;42.486;26.506;2022-12-18T00:01:35;235.63;;;41.53;;
19509;SDS011;9896;42.486;26.506;2022-12-18T00:04:27;204.63;;;38.17;;
19509;SDS011;9896;42.486;26.506;2022-12-18T00:06:53;158.97;;;37.50;;
19509;SDS011;9896;42.486;26.506;2022-12-18T00:09:18;334.13;;;37.90;;
19509;SDS011;9896;42.486;26.506;2022-12-18T00:11:44;576.23;;;51.17;;
19509;SDS011;9896;42.486;26.506;2022-12-18T00:14:10;458.20;;;46.67;;
19509;SDS011;9896;42.486;26.506;2022-12-18T00:16:36;401.97;;;41.33;;
19509;SDS011;9896;42.486;26.506;2022-12-18T00:19:02;537.13;;;48.67;;
19509;SDS011;9896;42.486;26.506;2022-12-18T00:21:29;842.83;;;58.87;;
19509;SDS011;9896;42.486;26.506;2022-12-18T00:23:55;820.67;;;62.83;;
19509;SDS011;9896;42.486;26.506;2022-12-18T00:26:22;846.17;;;59.67;;
19509;SDS011;9896;42.486;26.506;2022-12-18T00:28:48;608.97;;;50.83;;
19509;SDS011;9896;42.486;26.506;2022-12-18T00:31:16;289.10;;;43.50;;
19509;SDS011;9896;42.486;26.506;2022-12-18T00:33:42;338.00;;;44.50;;
19509;SDS011;9896;42.486;26.506;2022-12-18T00:36:10;528.10;;;50.30;;
19509;SDS011;9896;42.486;26.506;2022-12-18T00:38:36;488.03;;;48.60;;
19509;SDS011;9896;42.486;26.506;2022-12-18T00:41:04;593.23;;;51.30;;
19509;SDS011;9896;42.486;26.506;2022-12-18T00:43:30;814.03;;;59.40;;
19509;SDS011;9896;42.486;26.506;2022-12-18T00:45:55;863.63;;;64.50;;
19509;SDS011;9896;42.486;26.506;2022-12-18T00:48:21;280.83;;;41.00;;
19509;SDS011;9896;42.486;26.506;2022-12-18T00:50:47;401.07;;;38.53;;
19509;SDS011;9896;42.486;26.506;2022-12-18T00:53:13;690.77;;;52.77;;
19509;SDS011;9896;42.486;26.506;2022-12-18T00:55:39;192.23;;;34.50;;
19509;SDS011;9896;42.486;26.506;2022-12-18T00:58:04;171.87;;;38.53;;
19509;SDS011;9896;42.486;26.506;2022-12-18T01:00:30;129.20;;;37.33;;
19509;SDS011;9896;42.486;26.506;2022-12-18T01:02:55;219.00;;;41.77;;
19509;SDS011;9896;42.486;26.506;2022-12-18T01:05:24;258.43;;;40.33;;
19509;SDS011;9896;42.486;26.506;2022-12-18T01:07:49;276.43;;;39.27;;
19509;SDS011;9896;42.486;26.506;2022-12-18T01:10:15;148.93;;;37.33;;
19509;SDS011;9896;42.486;26.506;2022-12-18T01:12:40;119.57;;;34.60;;
19509;SDS011;9896;42.486;26.506;2022-12-18T01:15:07;109.87;;;36.57;;
19509;SDS011;9896;42.486;26.506;2022-12-18T01:17:33;107.77;;;34.80;;
19509;SDS011;9896;42.486;26.506;2022-12-18T01:19:58;116.27;;;38.23;;
19509;SDS011;9896;42.486;26.506;2022-12-18T01:22:23;118.20;;;38.83;;
19509;SDS011;9896;42.486;26.506;2022-12-18T01:24:49;127.17;;;39.57;;
19509;SDS011;9896;42.486;26.506;2022-12-18T01:27:14;117.63;;;36.60;;
19509;SDS011;9896;42.486;26.506;2022-12-18T01:29:40;121.77;;;36.77;;
19509;SDS011;9896;42.486;26.506;2022-12-18T01:32:06;131.43;;;38.27;;
19509;SDS011;9896;42.486;26.506;2022-12-18T01:34:31;110.20;;;37.40;;
19509;SDS011;9896;42.486;26.506;2022-12-18T01:36:57;107.23;;;36.37;;
19509;SDS011;9896;42.486;26.506;2022-12-18T01:39:22;104.13;;;37.10;;
19509;SDS011;9896;42.486;26.506;2022-12-18T01:41:48;101.83;;;36.13;;
19509;SDS011;9896;42.486;26.506;2022-12-18T01:47:18;122.37;;;40.57;;
19509;SDS011;9896;42.486;26.506;2022-12-18T01:49:43;127.30;;;37.30;;
19509;SDS011;9896;42.486;26.506;2022-12-18T01:52:09;133.73;;;39.00;;
19509;SDS011;9896;42.486;26.506;2022-12-18T01:54:34;135.10;;;41.27;;
19509;SDS011;9896;42.486;26.506;2022-12-18T01:57:00;133.23;;;39.83;;
19509;SDS011;9896;42.486;26.506;2022-12-18T01:59:26;139.53;;;41.47;;
19509;SDS011;9896;42.486;26.506;2022-12-18T02:01:52;138.90;;;42.57;;
19509;SDS011;9896;42.486;26.506;2022-12-18T02:04:26;147.47;;;43.70;;
19509;SDS011;9896;42.486;26.506;2022-12-18T02:06:58;138.93;;;42.70;;
19509;SDS011;9896;42.486;26.506;2022-12-18T02:09:28;140.43;;;43.07;;
19509;SDS011;9896;42.486;26.506;2022-12-18T02:12:03;123.43;;;41.20;;
19509;SDS011;9896;42.486;26.506;2022-12-18T02:16:58;115.70;;;38.70;;
19509;SDS011;9896;42.486;26.506;2022-12-18T02:24:34;86.20;;;32.60;;
19509;SDS011;9896;42.486;26.506;2022-12-18T02:27:03;97.20;;;32.37;;
19509;SDS011;9896;42.486;26.506;2022-12-18T02:29:31;71.67;;;27.13;;
19509;SDS011;9896;42.486;26.506;2022-12-18T02:31:58;59.60;;;23.93;;
19509;SDS011;9896;42.486;26.506;2022-12-18T02:34:25;55.03;;;21.33;;
19509;SDS011;9896;42.486;26.506;2022-12-18T02:36:52;46.97;;;20.40;;
19509;SDS011;9896;42.486;26.506;2022-12-18T02:39:18;51.87;;;22.20;;
19509;SDS011;9896;42.486;26.506;2022-12-18T02:41:45;50.03;;;21.10;;
19509;SDS011;9896;42.486;26.506;2022-12-18T02:44:12;53.23;;;22.87;;
19509;SDS011;9896;42.486;26.506;2022-12-18T02:46:39;52.23;;;23.27;;
19509;SDS011;9896;42.486;26.506;2022-12-18T02:49:15;63.47;;;24.20;;
19509;SDS011;9896;42.486;26.506;2022-12-18T02:54:20;55.87;;;24.07;;
19509;SDS011;9896;42.486;26.506;2022-12-18T02:56:49;59.93;;;24.90;;
19509;SDS011;9896;42.486;26.506;2022-12-18T02:59:17;51.00;;;22.80;;
19509;SDS011;9896;42.486;26.506;2022-12-18T03:04:47;58.70;;;24.17;;
19509;SDS011;9896;42.486;26.506;2022-12-18T03:07:27;42.50;;;19.23;;
19509;SDS011;9896;42.486;26.506;2022-12-18T03:09:53;37.17;;;16.07;;
19509;SDS011;9896;42.486;26.506;2022-12-18T03:14:48;31.53;;;13.90;;
19509;SDS011;9896;42.486;26.506;2022-12-18T03:17:15;31.40;;;14.50;;
19509;SDS011;9896;42.486;26.506;2022-12-18T03:19:41;27.97;;;12.47;;
19509;SDS011;9896;42.486;26.506;2022-12-18T03:22:08;26.83;;;11.37;;
19509;SDS011;9896;42.486;26.506;2022-12-18T03:24:35;28.57;;;13.23;;
19509;SDS011;9896;42.486;26.506;2022-12-18T03:27:05;25.47;;;12.13;;
19509;SDS011;9896;42.486;26.506;2022-12-18T03:29:40;24.23;;;12.10;;
19509;SDS011;9896;42.486;26.506;2022-12-18T03:32:09;25.27;;;12.67;;
19509;SDS011;9896;42.486;26.506;2022-12-18T03:34:36;41.47;;;17.70;;
19509;SDS011;9896;42.486;26.506;2022-12-18T03:37:03;30.47;;;14.67;;
19509;SDS011;9896;42.486;26.506;2022-12-18T03:39:28;36.27;;;15.90;;
19509;SDS011;9896;42.486;26.506;2022-12-18T03:44:34;36.07;;;15.63;;
19509;SDS011;9896;42.486;26.506;2022-12-18T03:47:17;37.77;;;17.10;;
19509;SDS011;9896;42.486;26.506;2022-12-18T03:49:59;41.03;;;18.17;;
19509;SDS011;9896;42.486;26.506;2022-12-18T03:54:53;43.83;;;19.83;;
19509;SDS011;9896;42.486;26.506;2022-12-18T03:57:21;42.30;;;19.80;;
19509;SDS011;9896;42.486;26.506;2022-12-18T03:59:49;43.07;;;18.93;;
19509;SDS011;9896;42.486;26.506;2022-12-18T04:02:16;37.53;;;17.53;;
19509;SDS011;9896;42.486;26.506;2022-12-18T04:04:42;44.13;;;18.07;;
19509;SDS011;9896;42.486;26.506;2022-12-18T04:07:08;45.43;;;18.37;;
19509;SDS011;9896;42.486;26.506;2022-12-18T04:09:34;36.67;;;17.17;;
19509;SDS011;9896;42.486;26.506;2022-12-18T04:12:00;36.60;;;16.90;;
19509;SDS011;9896;42.486;26.506;2022-12-18T04:14:26;37.00;;;15.47;;
19509;SDS011;9896;42.486;26.506;2022-12-18T04:16:54;37.27;;;17.23;;
19509;SDS011;9896;42.486;26.506;2022-12-18T04:19:19;41.40;;;18.83;;
19509;SDS011;9896;42.486;26.506;2022-12-18T04:21:45;40.67;;;17.97;;
19509;SDS011;9896;42.486;26.506;2022-12-18T04:24:10;38.10;;;17.03;;
19509;SDS011;9896;42.486;26.506;2022-12-18T04:26:36;35.93;;;16.30;;
19509;SDS011;9896;42.486;26.506;2022-12-18T04:29:01;40.50;;;19.10;;
19509;SDS011;9896;42.486;26.506;2022-12-18T04:31:27;38.03;;;18.27;;
19509;SDS011;9896;42.486;26.506;2022-12-18T04:33:52;33.97;;;17.00;;
19509;SDS011;9896;42.486;26.506;2022-12-18T04:36:18;32.57;;;16.97;;
19509;SDS011;9896;42.486;26.506;2022-12-18T04:38:43;35.07;;;18.07;;
19509;SDS011;9896;42.486;26.506;2022-12-18T04:41:09;40.10;;;19.03;;
19509;SDS011;9896;42.486;26.506;2022-12-18T04:43:34;38.17;;;19.93;;
19509;SDS011;9896;42.486;26.506;2022-12-18T04:46:03;39.43;;;19.50;;
19509;SDS011;9896;42.486;26.506;2022-12-18T04:48:29;48.43;;;21.27;;
19509;SDS011;9896;42.486;26.506;2022-12-18T04:50:55;46.67;;;21.03;;
19509;SDS011;9896;42.486;26.506;2022-12-18T04:53:20;41.30;;;20.43;;
19509;SDS011;9896;42.486;26.506;2022-12-18T04:55:46;46.40;;;22.23;;
19509;SDS011;9896;42.486;26.506;2022-12-18T04:58:11;42.53;;;22.60;;
19509;SDS011;9896;42.486;26.506;2022-12-18T05:00:36;52.37;;;25.40;;
19509;SDS011;9896;42.486;26.506;2022-12-18T05:03:02;56.80;;;27.30;;
19509;SDS011;9896;42.486;26.506;2022-12-18T05:05:27;59.67;;;25.53;;
19509;SDS011;9896;42.486;26.506;2022-12-18T05:07:53;66.63;;;27.93;;
19509;SDS011;9896;42.486;26.506;2022-12-18T05:10:18;64.83;;;28.90;;
19509;SDS011;9896;42.486;26.506;2022-12-18T05:12:44;65.20;;;28.47;;
19509;SDS011;9896;42.486;26.506;2022-12-18T05:15:31;57.73;;;25.97;;
19509;SDS011;9896;42.486;26.506;2022-12-18T05:17:57;62.20;;;25.43;;
19509;SDS011;9896;42.486;26.506;2022-12-18T05:20:22;59.33;;;25.73;;
19509;SDS011;9896;42.486;26.506;2022-12-18T05:22:48;62.63;;;26.80;;
19509;SDS011;9896;42.486;26.506;2022-12-18T05:25:14;57.73;;;27.63;;
19509;SDS011;9896;42.486;26.506;2022-12-18T05:27:40;59.30;;;26.57;;
19509;SDS011;9896;42.486;26.506;2022-12-18T05:30:06;61.50;;;28.83;;
19509;SDS011;9896;42.486;26.506;2022-12-18T05:32:31;67.63;;;28.97;;
19509;SDS011;9896;42.486;26.506;2022-12-18T05:34:58;61.13;;;28.27;;
19509;SDS011;9896;42.486;26.506;2022-12-18T05:37:23;64.70;;;25.53;;
19509;SDS011;9896;42.486;26.506;2022-12-18T05:39:49;70.00;;;30.33;;
19509;SDS011;9896;42.486;26.506;2022-12-18T05:42:14;65.27;;;29.90;;
19509;SDS011;9896;42.486;26.506;2022-12-18T05:44:40;62.07;;;28.73;;
19509;SDS011;9896;42.486;26.506;2022-12-18T05:47:06;54.53;;;26.47;;
19509;SDS011;9896;42.486;26.506;2022-12-18T05:49:32;58.33;;;27.57;;
19509;SDS011;9896;42.486;26.506;2022-12-18T05:51:57;59.53;;;27.67;;
19509;SDS011;9896;42.486;26.506;2022-12-18T05:54:23;65.03;;;28.83;;
19509;SDS011;9896;42.486;26.506;2022-12-18T05:56:48;63.73;;;29.20;;
19509;SDS011;9896;42.486;26.506;2022-12-18T05:59:13;68.63;;;29.80;;
19509;SDS011;9896;42.486;26.506;2022-12-18T06:01:39;64.97;;;28.67;;
19509;SDS011;9896;42.486;26.506;2022-12-18T06:04:04;63.47;;;29.27;;
19509;SDS011;9896;42.486;26.506;2022-12-18T06:06:30;59.97;;;28.83;;
19509;SDS011;9896;42.486;26.506;2022-12-18T06:08:55;63.90;;;29.20;;
19509;SDS011;9896;42.486;26.506;2022-12-18T06:11:22;59.67;;;27.03;;
19509;SDS011;9896;42.486;26.506;2022-12-18T06:13:51;66.40;;;30.70;;
19509;SDS011;9896;42.486;26.506;2022-12-18T06:16:17;65.40;;;31.17;;
19509;SDS011;9896;42.486;26.506;2022-12-18T06:18:42;73.00;;;33.93;;
19509;SDS011;9896;42.486;26.506;2022-12-18T06:21:08;84.90;;;34.10;;
19509;SDS011;9896;42.486;26.506;2022-12-18T06:23:34;77.13;;;32.13;;
19509;SDS011;9896;42.486;26.506;2022-12-18T06:26:04;73.03;;;31.53;;
19509;SDS011;9896;42.486;26.506;2022-12-18T06:28:30;71.17;;;30.13;;
19509;SDS011;9896;42.486;26.506;2022-12-18T06:30:58;80.57;;;32.53;;
19509;SDS011;9896;42.486;26.506;2022-12-18T06:33:26;71.10;;;30.17;;
19509;SDS011;9896;42.486;26.506;2022-12-18T06:35:52;73.80;;;30.70;;
19509;SDS011;9896;42.486;26.506;2022-12-18T06:38:17;65.70;;;29.13;;
19509;SDS011;9896;42.486;26.506;2022-12-18T06:40:43;72.57;;;30.23;;
19509;SDS011;9896;42.486;26.506;2022-12-18T06:43:08;65.13;;;29.17;;
19509;SDS011;9896;42.486;26.506;2022-12-18T06:45:34;79.63;;;31.23;;
19509;SDS011;9896;42.486;26.506;2022-12-18T06:48:02;75.30;;;31.03;;
19509;SDS011;9896;42.486;26.506;2022-12-18T06:50:29;66.07;;;30.53;;
19509;SDS011;9896;42.486;26.506;2022-12-18T06:52:54;73.67;;;32.10;;
19509;SDS011;9896;42.486;26.506;2022-12-18T06:55:20;73.60;;;33.90;;
19509;SDS011;9896;42.486;26.506;2022-12-18T06:57:45;72.90;;;30.47;;
19509;SDS011;9896;42.486;26.506;2022-12-18T07:00:10;71.30;;;31.20;;
19509;SDS011;9896;42.486;26.506;2022-12-18T07:02:36;68.90;;;31.50;;
19509;SDS011;9896;42.486;26.506;2022-12-18T07:05:02;69.03;;;30.83;;
19509;SDS011;9896;42.486;26.506;2022-12-18T07:07:27;68.07;;;30.17;;
19509;SDS011;9896;42.486;26.506;2022-12-18T07:09:53;67.40;;;30.30;;
19509;SDS011;9896;42.486;26.506;2022-12-18T07:12:19;72.47;;;30.90;;
19509;SDS011;9896;42.486;26.506;2022-12-18T07:14:45;68.27;;;29.57;;
19509;SDS011;9896;42.486;26.506;2022-12-18T07:17:10;59.83;;;26.90;;
19509;SDS011;9896;42.486;26.506;2022-12-18T07:22:56;42.10;;;20.93;;
19509;SDS011;9896;42.486;26.506;2022-12-18T07:25:44;29.97;;;14.50;;
19509;SDS011;9896;42.486;26.506;2022-12-18T07:28:30;21.23;;;11.20;;
19509;SDS011;9896;42.486;26.506;2022-12-18T07:34:02;13.13;;;6.37;;
19509;SDS011;9896;42.486;26.506;2022-12-18T07:36:37;11.13;;;6.73;;
19509;SDS011;9896;42.486;26.506;2022-12-18T07:39:06;8.43;;;5.63;;
19509;SDS011;9896;42.486;26.506;2022-12-18T07:44:46;8.77;;;5.43;;
19509;SDS011;9896;42.486;26.506;2022-12-18T07:47:33;8.83;;;5.70;;
19509;SDS011;9896;42.486;26.506;2022-12-18T07:52:58;12.33;;;6.27;;
19509;SDS011;9896;42.486;26.506;2022-12-18T07:55:34;9.83;;;5.43;;
19509;SDS011;9896;42.486;26.506;2022-12-18T07:58:03;10.43;;;6.03;;
19509;SDS011;9896;42.486;26.506;2022-12-18T08:00:29;8.07;;;5.50;;
19509;SDS011;9896;42.486;26.506;2022-12-18T08:02:55;10.30;;;5.20;;
19509;SDS011;9896;42.486;26.506;2022-12-18T08:05:20;7.37;;;4.63;;
19509;SDS011;9896;42.486;26.506;2022-12-18T08:07:46;8.03;;;5.37;;
19509;SDS011;9896;42.486;26.506;2022-12-18T08:10:12;9.17;;;5.20;;
19509;SDS011;9896;42.486;26.506;2022-12-18T08:12:37;7.57;;;5.13;;
19509;SDS011;9896;42.486;26.506;2022-12-18T08:15:02;10.23;;;5.80;;
19509;SDS011;9896;42.486;26.506;2022-12-18T08:17:28;9.00;;;5.17;;
19509;SDS011;9896;42.486;26.506;2022-12-18T08:19:53;12.63;;;6.03;;
19509;SDS011;9896;42.486;26.506;2022-12-18T08:22:19;8.27;;;5.00;;
19509;SDS011;9896;42.486;26.506;2022-12-18T08:24:44;8.57;;;5.60;;
19509;SDS011;9896;42.486;26.506;2022-12-18T08:27:10;9.13;;;5.33;;
19509;SDS011;9896;42.486;26.506;2022-12-18T08:29:35;9.50;;;5.77;;
19509;SDS011;9896;42.486;26.506;2022-12-18T08:32:00;10.37;;;5.80;;
19509;SDS011;9896;42.486;26.506;2022-12-18T08:34:26;8.90;;;5.37;;
19509;SDS011;9896;42.486;26.506;2022-12-18T08:36:51;10.27;;;6.00;;
19509;SDS011;9896;42.486;26.506;2022-12-18T08:39:17;8.63;;;5.00;;
19509;SDS011;9896;42.486;26.506;2022-12-18T08:41:42;9.07;;;5.87;;
19509;SDS011;9896;42.486;26.506;2022-12-18T08:44:27;8.20;;;4.97;;
19509;SDS011;9896;42.486;26.506;2022-12-18T08:47:05;9.40;;;5.43;;
19509;SDS011;9896;42.486;26.506;2022-12-18T08:49:31;8.17;;;5.57;;
19509;SDS011;9896;42.486;26.506;2022-12-18T08:51:56;11.97;;;5.83;;
19509;SDS011;9896;42.486;26.506;2022-12-18T08:54:22;9.63;;;6.57;;
19509;SDS011;9896;42.486;26.506;2022-12-18T08:56:48;10.40;;;5.80;;
19509;SDS011;9896;42.486;26.506;2022-12-18T08:59:14;9.00;;;5.50;;
19509;SDS011;9896;42.486;26.506;2022-12-18T09:01:40;10.50;;;5.93;;
19509;SDS011;9896;42.486;26.506;2022-12-18T09:04:05;11.37;;;5.50;;
19509;SDS011;9896;42.486;26.506;2022-12-18T09:06:31;9.73;;;5.63;;
19509;SDS011;9896;42.486;26.506;2022-12-18T09:08:56;9.17;;;5.80;;
19509;SDS011;9896;42.486;26.506;2022-12-18T09:11:24;7.67;;;3.90;;
19509;SDS011;9896;42.486;26.506;2022-12-18T09:13:50;8.43;;;5.33;;
19509;SDS011;9896;42.486;26.506;2022-12-18T09:16:15;9.13;;;6.10;;
19509;SDS011;9896;42.486;26.506;2022-12-18T09:18:41;9.73;;;5.80;;
19509;SDS011;9896;42.486;26.506;2022-12-18T09:21:07;11.53;;;6.23;;
19509;SDS011;9896;42.486;26.506;2022-12-18T09:23:32;9.90;;;5.70;;
19509;SDS011;9896;42.486;26.506;2022-12-18T09:25:58;10.30;;;6.27;;
19509;SDS011;9896;42.486;26.506;2022-12-18T09:28:24;9.53;;;4.93;;
19509;SDS011;9896;42.486;26.506;2022-12-18T09:30:50;8.23;;;5.17;;
19509;SDS011;9896;42.486;26.506;2022-12-18T09:33:16;8.10;;;5.20;;
19509;SDS011;9896;42.486;26.506;2022-12-18T09:35:42;12.23;;;6.37;;
19509;SDS011;9896;42.486;26.506;2022-12-18T09:38:08;9.93;;;5.33;;
19509;SDS011;9896;42.486;26.506;2022-12-18T09:40:39;9.07;;;5.43;;
19509;SDS011;9896;42.486;26.506;2022-12-18T09:43:06;8.73;;;5.47;;
19509;SDS011;9896;42.486;26.506;2022-12-18T09:45:39;10.10;;;5.97;;
19509;SDS011;9896;42.486;26.506;2022-12-18T09:48:10;11.90;;;5.90;;
19509;SDS011;9896;42.486;26.506;2022-12-18T09:50:40;10.77;;;6.60;;
19509;SDS011;9896;42.486;26.506;2022-12-18T09:53:06;12.60;;;6.83;;
19509;SDS011;9896;42.486;26.506;2022-12-18T09:55:42;10.37;;;5.77;;
19509;SDS011;9896;42.486;26.506;2022-12-18T09:58:29;11.73;;;5.83;;
19509;SDS011;9896;42.486;26.506;2022-12-18T10:00:53;10.10;;;5.70;;
19509;SDS011;9896;42.486;26.506;2022-12-18T10:03:18;9.93;;;6.63;;
19509;SDS011;9896;42.486;26.506;2022-12-18T10:10:47;10.23;;;6.63;;
19509;SDS011;9896;42.486;26.506;2022-12-18T10:15:48;9.83;;;6.87;;
19509;SDS011;9896;42.486;26.506;2022-12-18T10:20:48;13.73;;;6.77;;
19509;SDS011;9896;42.486;26.506;2022-12-18T10:25:58;14.73;;;7.43;;
19509;SDS011;9896;42.486;26.506;2022-12-18T10:28:24;12.00;;;6.60;;
19509;SDS011;9896;42.486;26.506;2022-12-18T10:30:51;13.27;;;7.00;;
19509;SDS011;9896;42.486;26.506;2022-12-18T10:33:20;13.50;;;7.60;;
19509;SDS011;9896;42.486;26.506;2022-12-18T10:35:47;15.37;;;7.53;;
19509;SDS011;9896;42.486;26.506;2022-12-18T10:40:49;12.07;;;6.67;;
19509;SDS011;9896;42.486;26.506;2022-12-18T10:43:15;11.63;;;7.23;;
19509;SDS011;9896;42.486;26.506;2022-12-18T10:45:44;12.23;;;6.77;;
19509;SDS011;9896;42.486;26.506;2022-12-18T10:48:22;12.83;;;8.37;;
19509;SDS011;9896;42.486;26.506;2022-12-18T10:50:49;18.70;;;8.67;;
19509;SDS011;9896;42.486;26.506;2022-12-18T10:53:21;15.37;;;9.00;;
19509;SDS011;9896;42.486;26.506;2022-12-18T10:55:48;15.37;;;9.00;;
19509;SDS011;9896;42.486;26.506;2022-12-18T10:58:25;15.87;;;8.80;;
19509;SDS011;9896;42.486;26.506;2022-12-18T11:01:10;15.90;;;8.30;;
19509;SDS011;9896;42.486;26.506;2022-12-18T11:06:11;14.00;;;8.20;;
19509;SDS011;9896;42.486;26.506;2022-12-18T11:08:36;15.90;;;8.33;;
19509;SDS011;9896;42.486;26.506;2022-12-18T11:11:02;16.47;;;9.33;;
19509;SDS011;9896;42.486;26.506;2022-12-18T11:13:29;16.33;;;9.00;;
19509;SDS011;9896;42.486;26.506;2022-12-18T11:15:55;17.50;;;9.70;;
19509;SDS011;9896;42.486;26.506;2022-12-18T11:20:53;16.83;;;8.13;;
19509;SDS011;9896;42.486;26.506;2022-12-18T11:23:19;16.17;;;8.90;;
19509;SDS011;9896;42.486;26.506;2022-12-18T11:25:55;13.30;;;8.17;;
19509;SDS011;9896;42.486;26.506;2022-12-18T11:28:43;13.70;;;8.20;;
19509;SDS011;9896;42.486;26.506;2022-12-18T11:31:24;12.17;;;7.57;;
19509;SDS011;9896;42.486;26.506;2022-12-18T11:36:21;13.60;;;8.23;;
19509;SDS011;9896;42.486;26.506;2022-12-18T11:38:47;11.13;;;6.83;;
19509;SDS011;9896;42.486;26.506;2022-12-18T11:41:27;13.37;;;8.03;;
19509;SDS011;9896;42.486;26.506;2022-12-18T11:47:18;10.97;;;7.07;;
19509;SDS011;9896;42.486;26.506;2022-12-18T11:49:44;14.83;;;7.77;;
19509;SDS011;9896;42.486;26.506;2022-12-18T11:52:19;17.33;;;8.87;;
19509;SDS011;9896;42.486;26.506;2022-12-18T11:54:55;15.90;;;10.00;;
19509;SDS011;9896;42.486;26.506;2022-12-18T12:00:02;16.53;;;9.50;;
19509;SDS011;9896;42.486;26.506;2022-12-18T12:10:25;15.27;;;8.97;;
19509;SDS011;9896;42.486;26.506;2022-12-18T12:15:47;16.60;;;9.43;;
19509;SDS011;9896;42.486;26.506;2022-12-18T12:25:50;17.83;;;9.67;;
19509;SDS011;9896;42.486;26.506;2022-12-18T12:29:01;17.00;;;8.90;;
19509;SDS011;9896;42.486;26.506;2022-12-18T12:39:17;20.10;;;10.53;;
19509;SDS011;9896;42.486;26.506;2022-12-18T12:41:43;17.03;;;9.10;;
19509;SDS011;9896;42.486;26.506;2022-12-18T12:44:29;19.67;;;9.80;;
19509;SDS011;9896;42.486;26.506;2022-12-18T12:46:56;21.70;;;10.63;;
19509;SDS011;9896;42.486;26.506;2022-12-18T12:49:25;19.03;;;10.20;;
19509;SDS011;9896;42.486;26.506;2022-12-18T12:52:04;23.27;;;12.00;;
19509;SDS011;9896;42.486;26.506;2022-12-18T12:54:31;22.00;;;11.73;;
19509;SDS011;9896;42.486;26.506;2022-12-18T12:59:31;22.60;;;11.20;;
19509;SDS011;9896;42.486;26.506;2022-12-18T13:07:14;19.80;;;11.50;;
19509;SDS011;9896;42.486;26.506;2022-12-18T13:12:24;20.17;;;10.37;;
19509;SDS011;9896;42.486;26.506;2022-12-18T13:15:26;14.10;;;7.67;;
19509;SDS011;9896;42.486;26.506;2022-12-18T13:18:05;25.90;;;11.60;;
19509;SDS011;9896;42.486;26.506;2022-12-18T13:20:38;20.73;;;11.57;;
19509;SDS011;9896;42.486;26.506;2022-12-18T13:25:45;20.47;;;11.10;;
19509;SDS011;9896;42.486;26.506;2022-12-18T13:38:21;23.43;;;10.23;;
19509;SDS011;9896;42.486;26.506;2022-12-18T13:45:45;23.23;;;10.90;;
19509;SDS011;9896;42.486;26.506;2022-12-18T13:48:15;23.53;;;10.40;;
19509;SDS011;9896;42.486;26.506;2022-12-18T13:50:41;23.30;;;11.57;;
19509;SDS011;9896;42.486;26.506;2022-12-18T13:53:11;18.93;;;10.13;;
19509;SDS011;9896;42.486;26.506;2022-12-18T13:55:44;20.33;;;11.40;;
19509;SDS011;9896;42.486;26.506;2022-12-18T13:58:11;24.40;;;12.33;;
19509;SDS011;9896;42.486;26.506;2022-12-18T14:00:40;24.07;;;11.70;;
19509;SDS011;9896;42.486;26.506;2022-12-18T14:03:15;21.60;;;10.70;;
19509;SDS011;9896;42.486;26.506;2022-12-18T14:05:42;19.63;;;10.07;;
19509;SDS011;9896;42.486;26.506;2022-12-18T14:08:10;25.13;;;12.73;;
19509;SDS011;9896;42.486;26.506;2022-12-18T14:10:40;20.27;;;10.10;;
19509;SDS011;9896;42.486;26.506;2022-12-18T14:13:06;22.83;;;11.80;;
19509;SDS011;9896;42.486;26.506;2022-12-18T14:18:18;22.10;;;11.77;;
19509;SDS011;9896;42.486;26.506;2022-12-18T14:20:48;21.00;;;10.37;;
19509;SDS011;9896;42.486;26.506;2022-12-18T14:23:30;21.23;;;10.63;;
19509;SDS011;9896;42.486;26.506;2022-12-18T14:25:56;21.37;;;10.97;;
19509;SDS011;9896;42.486;26.506;2022-12-18T14:28:22;22.20;;;11.70;;
19509;SDS011;9896;42.486;26.506;2022-12-18T14:30:47;18.20;;;10.17;;
19509;SDS011;9896;42.486;26.506;2022-12-18T14:35:42;21.60;;;10.33;;
19509;SDS011;9896;42.486;26.506;2022-12-18T14:41:05;16.03;;;8.37;;
19509;SDS011;9896;42.486;26.506;2022-12-18T14:43:35;20.77;;;11.00;;
19509;SDS011;9896;42.486;26.506;2022-12-18T14:46:01;16.40;;;9.23;;
19509;SDS011;9896;42.486;26.506;2022-12-18T14:51:29;22.60;;;10.43;;
19509;SDS011;9896;42.486;26.506;2022-12-18T14:53:48;20.80;;;11.03;;
19509;SDS011;9896;42.486;26.506;2022-12-18T14:56:34;20.87;;;11.17;;
19509;SDS011;9896;42.486;26.506;2022-12-18T15:01:26;22.23;;;11.60;;
19509;SDS011;9896;42.486;26.506;2022-12-18T15:03:53;19.83;;;11.50;;
19509;SDS011;9896;42.486;26.506;2022-12-18T15:06:24;22.70;;;10.87;;
19509;SDS011;9896;42.486;26.506;2022-12-18T15:08:51;17.90;;;10.30;;
19509;SDS011;9896;42.486;26.506;2022-12-18T15:11:25;24.20;;;11.07;;
19509;SDS011;9896;42.486;26.506;2022-12-18T15:13:51;21.00;;;10.77;;
19509;SDS011;9896;42.486;26.506;2022-12-18T15:16:16;21.77;;;10.83;;
19509;SDS011;9896;42.486;26.506;2022-12-18T15:18:42;24.27;;;12.13;;
19509;SDS011;9896;42.486;26.506;2022-12-18T15:21:10;22.47;;;11.90;;
19509;SDS011;9896;42.486;26.506;2022-12-18T15:23:38;24.70;;;12.27;;
19509;SDS011;9896;42.486;26.506;2022-12-18T15:26:11;22.67;;;10.83;;
19509;SDS011;9896;42.486;26.506;2022-12-18T15:28:37;25.37;;;13.03;;
19509;SDS011;9896;42.486;26.506;2022-12-18T15:33:36;26.43;;;12.30;;
19509;SDS011;9896;42.486;26.506;2022-12-18T15:36:08;24.63;;;12.80;;
19509;SDS011;9896;42.486;26.506;2022-12-18T15:38:33;27.53;;;13.33;;
19509;SDS011;9896;42.486;26.506;2022-12-18T15:40:59;24.17;;;12.63;;
19509;SDS011;9896;42.486;26.506;2022-12-18T15:43:26;28.13;;;12.87;;
19509;SDS011;9896;42.486;26.506;2022-12-18T15:46:01;24.37;;;12.57;;
19509;SDS011;9896;42.486;26.506;2022-12-18T15:48:26;27.87;;;13.30;;
19509;SDS011;9896;42.486;26.506;2022-12-18T15:50:52;28.60;;;14.37;;
19509;SDS011;9896;42.486;26.506;2022-12-18T15:53:18;28.30;;;13.73;;
19509;SDS011;9896;42.486;26.506;2022-12-18T15:55:44;31.53;;;14.73;;
19509;SDS011;9896;42.486;26.506;2022-12-18T15:58:27;28.13;;;13.60;;
19509;SDS011;9896;42.486;26.506;2022-12-18T16:00:53;26.60;;;13.27;;
19509;SDS011;9896;42.486;26.506;2022-12-18T16:03:20;25.87;;;13.30;;
19509;SDS011;9896;42.486;26.506;2022-12-18T16:05:46;32.00;;;15.20;;
19509;SDS011;9896;42.486;26.506;2022-12-18T16:08:11;28.10;;;12.87;;
19509;SDS011;9896;42.486;26.506;2022-12-18T16:10:36;29.63;;;13.60;;
19509;SDS011;9896;42.486;26.506;2022-12-18T16:13:02;30.17;;;14.43;;
19509;SDS011;9896;42.486;26.506;2022-12-18T16:15:27;29.13;;;14.77;;
19509;SDS011;9896;42.486;26.506;2022-12-18T16:17:53;30.10;;;14.50;;
19509;SDS011;9896;42.486;26.506;2022-12-18T16:20:19;31.53;;;15.43;;
19509;SDS011;9896;42.486;26.506;2022-12-18T16:22:45;28.37;;;13.27;;
19509;SDS011;9896;42.486;26.506;2022-12-18T16:25:15;28.57;;;14.37;;
19509;SDS011;9896;42.486;26.506;2022-12-18T16:27:41;20.70;;;10.40;;
19509;SDS011;9896;42.486;26.506;2022-12-18T16:30:11;30.60;;;15.07;;
19509;SDS011;9896;42.486;26.506;2022-12-18T16:32:37;30.07;;;13.97;;
19509;SDS011;9896;42.486;26.506;2022-12-18T16:35:02;33.30;;;15.10;;
19509;SDS011;9896;42.486;26.506;2022-12-18T16:37:28;29.57;;;14.20;;
19509;SDS011;9896;42.486;26.506;2022-12-18T16:39:53;30.03;;;14.97;;
19509;SDS011;9896;42.486;26.506;2022-12-18T16:42:18;32.97;;;14.37;;
19509;SDS011;9896;42.486;26.506;2022-12-18T16:44:45;30.40;;;15.50;;